Kimberly, West Virginia
Current Conditions -  °F | °C
As of 11:54 PM on Saturday 20 Dec 2014 (Local Time) from KCRW Reporting Station
Overcast Overcast  
Wind Chill: 33°   Ceiling: 4500
Heat Index: 33°   Visibility: 10mi
Dew Point: 26°   Wind: 0mph
Humidity: 75%   Direction: NA
Pressure: 30.26"   Gusts: NA
Location:  38.14°N, 81.3°W
Report Text: KCRW 210454Z 00000KT 10SM OVC045 01/M03 A3026 RMK AO2 SLP256 T00061033 400221022
Loading
Personal Weather Stations






























Interactive Weather Map New forecast layout! Learn more

10-Day Weather Forecast

Advertisements
Track Severe Weather on mobile